Time;durP1;ratioP1;P1;durP2;ratioP2;P2;SDS_P1;SDS_P2;PMS_P1;PMS_P2;Temp;Humidity;BMP_temperature;BMP_pressure;BME280_temperature;BME280_humidity;BME280_pressure;Samples;Min_cycle;Max_cycle;Signal;HPM_P1;HPM_P2
2021/11/18 00:00:48;;;;;;;8.02;7.22;;;7.10;99.90;;;;;;5037354;28;20033;-78
2021/11/18 00:03:16;;;;;;;7.68;6.97;;;7.10;99.90;;;;;;5037118;28;20044;-77
2021/11/18 00:05:42;;;;;;;8.13;7.32;;;7.10;99.90;;;;;;5037155;28;20053;-77
2021/11/18 00:08:07;;;;;;;9.88;6.68;;;7.10;99.90;;;;;;5036685;28;20056;-78
2021/11/18 00:10:41;;;;;;;7.75;6.63;;;7.10;99.90;;;;;;5036703;28;20153;-77
2021/11/18 00:13:09;;;;;;;7.90;6.47;;;7.10;99.90;;;;;;5037022;28;20087;-78
2021/11/18 00:15:36;;;;;;;7.68;6.90;;;7.10;99.90;;;;;;5037291;28;20049;-76
2021/11/18 00:18:06;;;;;;;7.28;6.57;;;7.10;99.90;;;;;;5036638;28;20083;-76
2021/11/18 00:20:36;;;;;;;7.20;6.50;;;7.10;99.90;;;;;;5034557;28;20065;-77
2021/11/18 00:23:03;;;;;;;7.40;6.70;;;7.00;99.90;;;;;;5034955;28;20599;-77
2021/11/18 00:25:29;;;;;;;7.90;6.75;;;7.00;99.90;;;;;;5034922;28;20474;-77
2021/11/18 00:27:55;;;;;;;8.15;7.35;;;7.00;99.90;;;;;;5035378;28;20030;-78
2021/11/18 00:30:21;;;;;;;7.88;7.07;;;7.00;99.90;;;;;;5035302;28;20030;-76
2021/11/18 00:32:47;;;;;;;7.55;6.82;;;7.00;99.90;;;;;;5034576;28;20477;-78
2021/11/18 00:35:16;;;;;;;7.93;7.07;;;7.00;99.90;;;;;;5035219;28;20028;-78
2021/11/18 00:37:43;;;;;;;7.95;7.15;;;7.00;99.90;;;;;;5034288;28;20497;-77
2021/11/18 00:40:10;;;;;;;8.10;7.30;;;7.00;99.90;;;;;;5034392;28;20032;-76
2021/11/18 00:42:36;;;;;;;7.00;6.25;;;7.00;99.90;;;;;;5033981;28;20496;-76
2021/11/18 00:45:03;;;;;;;7.57;6.40;;;7.00;99.90;;;;;;5035497;28;20037;-78
2021/11/18 00:47:29;;;;;;;7.72;7.03;;;7.00;99.90;;;;;;5034771;28;20018;-76
2021/11/18 00:49:55;;;;;;;7.00;6.20;;;7.00;99.90;;;;;;5034023;28;20033;-77
2021/11/18 00:52:21;;;;;;;7.47;6.70;;;7.00;99.90;;;;;;5034966;28;20029;-77
2021/11/18 00:54:46;;;;;;;8.85;7.30;;;7.00;99.90;;;;;;5055259;28;20009;-76
2021/11/18 00:57:12;;;;;;;7.70;6.90;;;7.00;99.90;;;;;;5038644;28;20032;-77
2021/11/18 00:59:38;;;;;;;9.02;7.18;;;7.00;99.90;;;;;;5034620;28;20030;-77
2021/11/18 01:02:04;;;;;;;10.50;7.07;;;7.00;99.90;;;;;;5037335;28;20497;-76
2021/11/18 01:04:30;;;;;;;7.20;6.50;;;7.10;99.90;;;;;;5034998;28;20017;-77
2021/11/18 01:06:57;;;;;;;7.93;7.15;;;7.10;99.90;;;;;;5032925;28;20034;-77
2021/11/18 01:09:24;;;;;;;8.13;7.32;;;7.10;99.90;;;;;;5033640;28;20104;-77
2021/11/18 01:11:49;;;;;;;8.95;7.65;;;7.10;99.90;;;;;;5033482;28;20385;-77
2021/11/18 01:14:18;;;;;;;9.75;8.32;;;7.10;99.90;;;;;;5034410;28;20034;-77
2021/11/18 01:16:45;;;;;;;9.63;8.60;;;7.20;99.90;;;;;;5037432;28;20025;-77
2021/11/18 01:19:12;;;;;;;9.25;8.35;;;7.30;99.90;;;;;;5038745;28;20104;-76
2021/11/18 01:21:39;;;;;;;8.82;7.95;;;7.30;99.90;;;;;;5037055;28;20037;-77
2021/11/18 01:24:05;;;;;;;11.77;8.35;;;7.10;99.90;;;;;;5034136;28;20036;-78
2021/11/18 01:26:31;;;;;;;9.32;7.97;;;7.10;99.90;;;;;;5036642;28;20105;-77
2021/11/18 01:29:00;;;;;;;8.95;8.00;;;7.10;99.90;;;;;;5042540;28;20052;-77
2021/11/18 01:31:27;;;;;;;8.95;7.95;;;7.10;99.90;;;;;;5049906;28;20033;-78
2021/11/18 01:33:53;;;;;;;9.02;7.90;;;7.00;99.90;;;;;;5036528;28;20060;-77
2021/11/18 01:36:18;;;;;;;11.25;7.88;;;7.00;99.90;;;;;;5033231;28;20029;-77
2021/11/18 01:38:46;;;;;;;10.45;8.13;;;7.00;99.90;;;;;;5037404;28;20032;-77
2021/11/18 01:41:17;;;;;;;9.13;6.90;;;6.90;99.90;;;;;;5033138;28;20025;-77
2021/11/18 01:43:47;;;;;;;8.15;7.35;;;6.90;99.90;;;;;;5052348;28;20034;-77
2021/11/18 01:46:17;;;;;;;8.75;7.82;;;7.00;99.90;;;;;;5055474;28;20030;-77
2021/11/18 01:48:50;;;;;;;9.27;8.47;;;7.00;99.90;;;;;;5055725;28;20022;-77
2021/11/18 01:51:17;;;;;;;9.43;7.82;;;7.10;99.90;;;;;;5055424;28;20016;-76
2021/11/18 01:53:46;;;;;;;9.50;8.50;;;7.10;99.90;;;;;;5039587;28;20430;-77
2021/11/18 01:56:19;;;;;;;9.38;8.18;;;7.10;99.90;;;;;;5035812;28;20057;-77
2021/11/18 01:58:49;;;;;;;8.73;7.15;;;7.00;99.90;;;;;;5035190;28;20388;-77
2021/11/18 02:01:14;;;;;;;8.88;8.00;;;7.00;99.90;;;;;;5037987;28;20033;-77
2021/11/18 02:03:40;;;;;;;8.05;7.20;;;7.00;99.90;;;;;;5034838;28;20025;-77
2021/11/18 02:06:19;;;;;;;8.35;7.55;;;7.00;99.90;;;;;;5033852;28;20029;-76
2021/11/18 02:08:44;;;;;;;8.60;7.80;;;7.00;99.90;;;;;;5036590;28;20037;-77
2021/11/18 02:11:31;;;;;;;11.65;8.50;;;7.10;99.90;;;;;;5045014;28;20029;-77
2021/11/18 02:13:57;;;;;;;9.65;8.38;;;7.10;99.90;;;;;;5049049;28;20485;-75
2021/11/18 02:16:24;;;;;;;10.43;8.07;;;7.10;99.90;;;;;;5047852;28;20030;-77
2021/11/18 02:18:50;;;;;;;9.75;8.75;;;7.00;99.90;;;;;;5049106;28;20395;-76
2021/11/18 02:21:18;;;;;;;9.43;8.10;;;7.00;99.90;;;;;;5044465;28;20030;-77
2021/11/18 02:23:55;;;;;;;8.70;7.80;;;6.90;99.90;;;;;;5036187;28;20521;-77
2021/11/18 02:26:23;;;;;;;9.63;8.65;;;6.90;99.90;;;;;;5038513;28;20025;-77
2021/11/18 02:28:50;;;;;;;11.85;8.57;;;6.90;99.90;;;;;;5038468;28;20490;-77
2021/11/18 02:31:29;;;;;;;8.88;7.97;;;6.90;99.90;;;;;;5043018;28;20018;-76
2021/11/18 02:33:55;;;;;;;9.73;7.22;;;6.90;99.90;;;;;;5048368;28;20392;-76
2021/11/18 02:36:21;;;;;;;9.77;8.15;;;6.90;99.90;;;;;;5037460;28;20018;-76
2021/11/18 02:38:47;;;;;;;13.00;7.65;;;7.00;99.90;;;;;;5036007;28;20027;-76
2021/11/18 02:41:15;;;;;;;8.57;7.68;;;7.10;99.90;;;;;;5037284;28;20036;-75
2021/11/18 02:43:41;;;;;;;8.98;8.07;;;7.10;99.90;;;;;;5040165;28;20130;-76
2021/11/18 02:46:08;;;;;;;10.68;8.68;;;7.20;99.90;;;;;;5043641;28;20477;-76
2021/11/18 02:48:34;;;;;;;11.13;8.68;;;7.20;99.90;;;;;;5039784;28;20068;-77
2021/11/18 02:51:03;;;;;;;9.45;7.90;;;7.10;99.90;;;;;;5036285;28;20025;-77
2021/11/18 02:53:30;;;;;;;9.57;8.23;;;7.10;99.90;;;;;;5036749;28;20462;-77
2021/11/18 02:55:56;;;;;;;9.80;8.80;;;7.10;99.90;;;;;;5036776;28;20035;-77
2021/11/18 02:58:23;;;;;;;9.20;8.27;;;7.10;99.90;;;;;;5036570;28;20048;-77
2021/11/18 03:01:08;;;;;;;9.68;8.10;;;7.00;99.90;;;;;;5037171;28;20037;-77
2021/11/18 03:03:35;;;;;;;9.70;8.68;;;7.00;99.90;;;;;;5036455;28;20120;-77
2021/11/18 03:06:01;;;;;;;10.80;8.90;;;7.00;99.90;;;;;;5034951;28;20117;-77
2021/11/18 03:08:27;;;;;;;9.50;8.60;;;7.00;99.90;;;;;;5037830;28;20030;-77
2021/11/18 03:10:54;;;;;;;8.85;7.90;;;7.00;99.90;;;;;;5040573;28;20033;-75
2021/11/18 03:13:21;;;;;;;9.95;8.77;;;7.00;99.90;;;;;;5050643;28;20057;-76
2021/11/18 03:15:47;;;;;;;9.82;8.77;;;7.00;99.90;;;;;;5052647;28;20033;-77
2021/11/18 03:18:13;;;;;;;8.65;7.85;;;7.10;99.90;;;;;;5051315;28;20029;-77
2021/11/18 03:20:39;;;;;;;9.23;8.05;;;7.20;99.90;;;;;;5049118;28;20021;-76
2021/11/18 03:23:05;;;;;;;10.57;8.98;;;7.20;99.90;;;;;;5048978;28;20030;-77
2021/11/18 03:25:34;;;;;;;10.02;8.85;;;7.20;99.90;;;;;;5049817;28;20033;-77
2021/11/18 03:28:01;;;;;;;9.05;8.15;;;7.10;99.90;;;;;;5048586;28;20366;-77
2021/11/18 03:30:32;;;;;;;9.82;8.93;;;7.00;99.90;;;;;;5046680;28;20044;-75
2021/11/18 03:33:00;;;;;;;9.63;8.73;;;7.10;99.90;;;;;;5043564;28;20037;-76
2021/11/18 03:35:26;;;;;;;9.85;8.77;;;7.10;99.90;;;;;;5044268;28;20040;-76
2021/11/18 03:37:54;;;;;;;10.02;9.02;;;7.10;99.90;;;;;;5044959;28;20057;-77
2021/11/18 03:40:20;;;;;;;10.23;9.05;;;7.00;99.90;;;;;;5045147;28;20052;-77
2021/11/18 03:42:47;;;;;;;9.80;8.60;;;7.00;99.90;;;;;;5042710;28;20541;-77
2021/11/18 03:45:14;;;;;;;10.43;8.93;;;7.10;99.90;;;;;;5035970;28;20044;-76
2021/11/18 03:47:40;;;;;;;9.90;8.90;;;7.10;99.90;;;;;;5035946;28;20029;-77
2021/11/18 03:50:08;;;;;;;8.88;7.90;;;7.10;99.90;;;;;;5035573;28;20022;-76
2021/11/18 03:52:33;;;;;;;9.48;7.80;;;7.20;99.90;;;;;;5034355;28;20381;-78
2021/11/18 03:54:59;;;;;;;8.48;7.57;;;7.10;99.90;;;;;;5035568;28;20051;-77
2021/11/18 03:57:25;;;;;;;9.32;7.90;;;7.10;99.90;;;;;;5035651;28;20025;-76
2021/11/18 03:59:51;;;;;;;8.93;8.13;;;7.10;99.90;;;;;;5035625;28;20029;-76
2021/11/18 04:02:18;;;;;;;9.85;8.85;;;7.00;99.90;;;;;;5035672;28;20417;-76
2021/11/18 04:04:47;;;;;;;8.90;7.88;;;7.00;99.90;;;;;;5045875;28;20026;-77
2021/11/18 04:09:39;;;;;;;9.30;8.40;;;6.90;99.90;;;;;;5053715;22;20088;-72
2021/11/18 04:12:06;;;;;;;9.35;8.43;;;6.90;99.90;;;;;;5033979;28;20075;-72
2021/11/18 04:14:33;;;;;;;9.25;7.70;;;7.00;99.90;;;;;;5034733;28;20120;-73
2021/11/18 04:16:59;;;;;;;9.02;8.10;;;7.00;99.90;;;;;;5034181;28;20036;-73
2021/11/18 04:19:25;;;;;;;9.38;8.48;;;7.20;99.90;;;;;;5034841;28;20021;-72
2021/11/18 04:21:51;;;;;;;11.27;8.85;;;7.20;99.90;;;;;;5051672;28;20077;-72
2021/11/18 04:24:20;;;;;;;9.18;8.27;;;7.20;99.90;;;;;;5054724;28;20025;-72
2021/11/18 04:26:47;;;;;;;11.50;8.43;;;7.20;99.90;;;;;;5042268;28;20082;-72
2021/11/18 04:29:14;;;;;;;8.88;7.97;;;7.20;99.90;;;;;;5033819;28;20458;-73
2021/11/18 04:31:40;;;;;;;9.93;8.57;;;7.20;99.90;;;;;;5033951;28;20473;-72
2021/11/18 04:34:09;;;;;;;9.77;8.77;;;7.20;99.90;;;;;;5033539;28;20084;-73
2021/11/18 04:36:36;;;;;;;9.93;9.00;;;7.20;99.90;;;;;;5031974;28;20021;-72
2021/11/18 04:39:05;;;;;;;11.48;9.30;;;7.10;99.90;;;;;;5033427;28;20056;-73
2021/11/18 04:41:30;;;;;;;10.23;9.23;;;7.10;99.90;;;;;;5033566;28;20094;-73
2021/11/18 04:43:57;;;;;;;9.98;8.80;;;7.20;99.90;;;;;;5041822;28;20037;-73
2021/11/18 04:46:24;;;;;;;12.80;8.57;;;7.20;99.90;;;;;;5034143;28;20021;-72
2021/11/18 04:48:51;;;;;;;11.02;9.18;;;7.10;99.90;;;;;;5033997;28;20022;-72
2021/11/18 04:51:22;;;;;;;11.05;9.95;;;7.20;99.90;;;;;;5034029;28;20472;-72
2021/11/18 04:53:48;;;;;;;11.85;10.27;;;7.20;99.90;;;;;;5033406;28;20037;-72
2021/11/18 04:56:14;;;;;;;13.18;11.77;;;7.10;99.90;;;;;;5032177;28;20060;-72
2021/11/18 04:58:41;;;;;;;13.05;11.65;;;7.10;99.90;;;;;;5033413;28;20343;-73
2021/11/18 05:01:09;;;;;;;15.10;11.88;;;7.10;99.90;;;;;;5033879;28;20496;-72
2021/11/18 05:03:35;;;;;;;15.52;10.95;;;7.10;99.90;;;;;;5033125;28;20443;-73
2021/11/18 05:06:01;;;;;;;14.63;10.68;;;7.10;99.90;;;;;;5033304;28;20021;-73
2021/11/18 05:08:27;;;;;;;13.63;9.95;;;7.10;99.90;;;;;;5033031;28;20476;-73
2021/11/18 05:10:53;;;;;;;12.27;10.98;;;7.10;99.90;;;;;;5033100;28;20108;-73
2021/11/18 05:13:21;;;;;;;12.40;11.07;;;7.10;99.90;;;;;;5031801;28;20026;-73
2021/11/18 05:15:49;;;;;;;13.32;11.05;;;7.10;99.90;;;;;;5033813;28;20120;-74
2021/11/18 05:18:15;;;;;;;14.07;10.80;;;7.10;99.90;;;;;;5033490;28;20033;-72
2021/11/18 05:20:42;;;;;;;13.25;11.63;;;7.10;99.90;;;;;;5033858;28;20074;-72
2021/11/18 05:23:09;;;;;;;14.38;12.00;;;7.20;99.90;;;;;;5033834;28;20603;-72
2021/11/18 05:25:36;;;;;;;12.30;11.00;;;7.30;99.90;;;;;;5033624;28;20029;-72
2021/11/18 05:28:02;;;;;;;14.95;11.50;;;7.30;99.90;;;;;;5032393;28;20029;-71
2021/11/18 05:30:29;;;;;;;14.93;11.35;;;7.40;99.90;;;;;;5032956;28;20021;-72
2021/11/18 05:32:56;;;;;;;15.15;11.40;;;7.30;99.90;;;;;;5031890;28;20025;-72
2021/11/18 05:35:25;;;;;;;13.77;12.30;;;7.30;99.90;;;;;;5033471;28;20152;-72
2021/11/18 05:37:51;;;;;;;16.35;11.35;;;7.20;99.90;;;;;;5033412;28;20469;-71
2021/11/18 05:40:18;;;;;;;14.00;11.88;;;7.10;99.90;;;;;;5033240;28;20033;-72
2021/11/18 05:42:44;;;;;;;16.50;11.80;;;7.10;99.90;;;;;;5032907;28;20056;-72
2021/11/18 05:45:14;;;;;;;19.05;13.35;;;7.00;99.90;;;;;;5032888;28;20025;-72
2021/11/18 05:47:40;;;;;;;15.27;12.80;;;7.00;99.90;;;;;;5032106;28;20301;-72
2021/11/18 05:50:07;;;;;;;15.93;11.73;;;7.10;99.90;;;;;;5032701;28;20112;-72
2021/11/18 05:52:33;;;;;;;13.70;12.15;;;7.00;99.90;;;;;;5032291;28;20068;-72
2021/11/18 05:54:59;;;;;;;18.63;12.80;;;7.00;99.90;;;;;;5033191;28;20080;-73
2021/11/18 05:57:25;;;;;;;19.38;12.10;;;7.00;99.90;;;;;;5031963;28;20113;-72
2021/11/18 05:59:52;;;;;;;14.23;12.35;;;7.00;99.90;;;;;;5032847;28;20029;-72
2021/11/18 06:02:18;;;;;;;15.43;11.80;;;7.00;99.90;;;;;;5032460;28;20021;-73
2021/11/18 06:04:44;;;;;;;14.52;11.23;;;7.10;99.90;;;;;;5032688;28;20036;-73
2021/11/18 06:07:10;;;;;;;15.02;11.27;;;7.10;99.90;;;;;;5034195;28;20025;-71
2021/11/18 06:09:36;;;;;;;17.60;11.40;;;7.10;99.90;;;;;;5040070;28;20041;-74
2021/11/18 06:12:02;;;;;;;15.88;11.73;;;7.10;99.90;;;;;;5040774;28;20025;-71
2021/11/18 06:14:29;;;;;;;15.23;11.52;;;7.10;99.90;;;;;;5035292;28;20040;-72
2021/11/18 06:16:54;;;;;;;15.50;11.13;;;7.20;99.90;;;;;;5032926;28;20420;-73
2021/11/18 06:19:20;;;;;;;18.95;11.63;;;7.30;99.90;;;;;;5032267;28;20032;-72
2021/11/18 06:21:48;;;;;;;15.05;11.05;;;7.30;99.90;;;;;;5031976;28;20480;-72
2021/11/18 06:24:16;;;;;;;16.27;11.43;;;7.40;99.90;;;;;;5033462;28;20064;-72
2021/11/18 06:26:42;;;;;;;13.57;10.85;;;7.40;99.90;;;;;;5031199;28;20027;-72
2021/11/18 06:29:07;;;;;;;13.48;10.30;;;7.40;99.90;;;;;;5030650;28;20018;-73
2021/11/18 06:31:34;;;;;;;12.93;10.35;;;7.40;99.90;;;;;;5031142;28;20030;-74
2021/11/18 06:34:00;;;;;;;11.82;10.30;;;7.40;99.90;;;;;;5032319;28;20034;-71
2021/11/18 06:36:26;;;;;;;14.05;10.85;;;7.40;99.90;;;;;;5031873;28;20022;-72
2021/11/18 06:38:52;;;;;;;13.35;11.45;;;7.50;99.90;;;;;;5030857;28;20057;-73
2021/11/18 06:41:20;;;;;;;13.60;10.65;;;7.50;99.90;;;;;;5031976;28;20029;-72
2021/11/18 06:43:46;;;;;;;16.35;11.02;;;7.50;99.90;;;;;;5032068;28;20029;-73
2021/11/18 06:46:13;;;;;;;15.00;10.93;;;7.60;99.90;;;;;;5031849;28;20029;-72
2021/11/18 06:48:40;;;;;;;16.05;9.73;;;7.60;99.90;;;;;;5031565;28;20022;-73
2021/11/18 06:51:10;;;;;;;13.00;9.80;;;7.60;99.90;;;;;;5030580;28;20030;-72
2021/11/18 06:53:39;;;;;;;15.23;10.50;;;7.70;99.90;;;;;;5032265;28;20366;-72
2021/11/18 06:56:06;;;;;;;13.52;9.88;;;7.60;99.90;;;;;;5031907;28;20053;-72
2021/11/18 06:58:32;;;;;;;13.05;9.88;;;7.50;99.90;;;;;;5031743;28;20030;-72
2021/11/18 07:00:58;;;;;;;11.23;10.05;;;7.40;99.90;;;;;;5035680;28;20409;-73
2021/11/18 07:03:24;;;;;;;14.82;10.68;;;7.30;99.90;;;;;;5035541;28;20334;-72
2021/11/18 07:05:50;;;;;;;13.50;11.00;;;7.30;99.90;;;;;;5035450;28;20021;-73
2021/11/18 07:08:16;;;;;;;13.95;10.88;;;7.20;99.90;;;;;;5033906;28;20053;-72
2021/11/18 07:10:43;;;;;;;12.85;10.55;;;7.30;99.90;;;;;;5035105;28;20023;-73
2021/11/18 07:13:29;;;;;;;14.85;11.07;;;7.40;99.90;;;;;;5035219;28;20432;-73
2021/11/18 07:15:55;;;;;;;11.35;10.10;;;7.40;99.90;;;;;;5035716;28;20548;-73
2021/11/18 07:18:22;;;;;;;12.88;10.25;;;7.40;99.90;;;;;;5034327;28;20060;-72
2021/11/18 07:20:49;;;;;;;12.05;10.32;;;7.50;99.90;;;;;;5035728;28;20423;-72
2021/11/18 07:23:15;;;;;;;12.80;9.82;;;7.50;99.90;;;;;;5041475;28;20095;-73
2021/11/18 07:25:41;;;;;;;16.30;11.27;;;7.60;99.90;;;;;;5036853;28;20021;-73
2021/11/18 07:28:07;;;;;;;12.60;10.38;;;7.70;99.90;;;;;;5035114;28;20029;-72
2021/11/18 07:30:33;;;;;;;13.85;10.70;;;7.60;99.90;;;;;;5047137;28;20101;-72
2021/11/18 07:32:59;;;;;;;15.77;11.02;;;7.60;99.90;;;;;;5050686;28;20089;-72
2021/11/18 07:35:25;;;;;;;13.43;10.80;;;7.70;99.90;;;;;;5052852;28;20052;-73
2021/11/18 07:37:51;;;;;;;16.42;10.40;;;7.80;99.90;;;;;;5047512;28;20484;-73
2021/11/18 07:40:19;;;;;;;12.93;11.00;;;7.80;99.90;;;;;;5035567;28;20109;-73
2021/11/18 07:42:46;;;;;;;13.70;11.05;;;7.80;99.90;;;;;;5036251;28;20037;-73
2021/11/18 07:45:14;;;;;;;19.00;12.57;;;7.70;99.90;;;;;;5036073;28;20017;-72
2021/11/18 07:47:39;;;;;;;16.98;10.73;;;7.70;99.90;;;;;;5036133;28;20018;-72
2021/11/18 07:50:07;;;;;;;14.48;12.07;;;7.80;99.90;;;;;;5040131;28;20033;-72
2021/11/18 07:52:33;;;;;;;16.17;11.85;;;7.80;99.90;;;;;;5040167;28;20033;-72
2021/11/18 07:54:59;;;;;;;21.58;12.80;;;7.90;99.90;;;;;;5040911;28;20393;-74
2021/11/18 07:57:25;;;;;;;16.38;12.73;;;7.80;99.90;;;;;;5036607;28;20029;-74
2021/11/18 07:59:50;;;;;;;20.13;13.18;;;7.80;99.90;;;;;;5036663;28;20025;-72
2021/11/18 08:02:16;;;;;;;18.55;12.48;;;7.90;99.90;;;;;;5037172;28;20025;-73
2021/11/18 08:04:41;;;;;;;14.45;11.73;;;7.90;99.90;;;;;;5036885;28;20064;-73
2021/11/18 08:07:07;;;;;;;17.02;12.60;;;7.80;99.90;;;;;;5035869;28;20047;-73
2021/11/18 08:09:33;;;;;;;16.90;11.80;;;7.80;99.90;;;;;;5017483;28;20469;-73
2021/11/18 08:12:04;;;;;;;14.98;11.02;;;7.70;99.90;;;;;;5035470;28;20025;-72
2021/11/18 08:14:30;;;;;;;14.90;11.30;;;7.70;99.90;;;;;;5034149;28;20026;-73
2021/11/18 08:16:57;;;;;;;15.07;11.65;;;7.80;99.90;;;;;;5035368;28;20039;-73
2021/11/18 08:19:23;;;;;;;19.05;10.98;;;7.80;99.90;;;;;;5033772;28;20037;-73
2021/11/18 08:21:51;;;;;;;16.10;12.02;;;7.80;99.90;;;;;;5033710;28;20041;-73
2021/11/18 08:24:18;;;;;;;16.13;12.95;;;7.70;99.90;;;;;;5035167;28;20029;-74
2021/11/18 08:26:45;;;;;;;16.38;12.20;;;7.70;99.90;;;;;;5035452;28;20112;-73
2021/11/18 08:29:13;;;;;;;15.35;11.57;;;7.80;99.90;;;;;;5034820;28;20048;-73
2021/11/18 08:31:40;;;;;;;15.02;11.77;;;7.80;99.90;;;;;;5034731;28;20017;-73
2021/11/18 08:34:06;;;;;;;14.23;11.07;;;7.80;99.90;;;;;;5034715;28;20037;-73
2021/11/18 08:36:34;;;;;;;13.73;11.50;;;7.70;99.90;;;;;;5035191;28;20094;-74
2021/11/18 08:39:00;;;;;;;15.65;11.35;;;7.70;99.90;;;;;;5034591;28;20057;-72
2021/11/18 08:41:26;;;;;;;16.23;11.63;;;7.80;99.90;;;;;;5035766;28;20052;-73
2021/11/18 08:43:54;;;;;;;15.15;10.50;;;7.80;99.90;;;;;;5035115;28;20029;-73
2021/11/18 08:46:21;;;;;;;13.40;10.07;;;7.90;99.90;;;;;;5035231;28;20037;-72
2021/11/18 08:48:47;;;;;;;13.55;10.63;;;8.10;99.90;;;;;;5034999;28;20029;-72
2021/11/18 08:51:16;;;;;;;12.93;10.48;;;8.30;99.90;;;;;;5035231;28;20072;-72
2021/11/18 08:53:44;;;;;;;17.17;11.00;;;8.40;99.90;;;;;;5035564;28;20060;-73
2021/11/18 08:56:10;;;;;;;22.02;11.65;;;8.40;99.90;;;;;;5034941;28;20025;-71
2021/11/18 08:58:39;;;;;;;13.20;10.02;;;8.40;99.90;;;;;;5035087;28;20388;-73
2021/11/18 09:01:09;;;;;;;13.55;10.00;;;8.60;99.90;;;;;;5035461;28;20040;-73
2021/11/18 09:03:35;;;;;;;12.75;9.93;;;8.70;99.90;;;;;;5034313;28;20033;-72
2021/11/18 09:06:05;;;;;;;12.40;10.10;;;8.70;99.90;;;;;;5035370;28;20102;-72
2021/11/18 09:08:32;;;;;;;24.08;13.63;;;8.80;99.90;;;;;;5035014;28;20034;-72
2021/11/18 09:10:59;;;;;;;14.68;10.80;;;8.70;99.90;;;;;;5034450;28;20045;-73
2021/11/18 09:13:25;;;;;;;16.20;12.15;;;8.70;99.90;;;;;;5034279;28;20022;-73
2021/11/18 09:15:51;;;;;;;20.65;13.10;;;8.70;99.90;;;;;;5034175;28;20036;-73
2021/11/18 09:18:17;;;;;;;15.60;10.73;;;8.70;99.90;;;;;;5036158;28;20030;-72
2021/11/18 09:20:44;;;;;;;16.90;11.25;;;8.80;99.90;;;;;;5043356;28;20481;-73
2021/11/18 09:23:12;;;;;;;15.38;10.13;;;8.70;99.90;;;;;;5042753;28;20028;-73
2021/11/18 09:25:43;;;;;;;14.95;11.25;;;8.80;99.90;;;;;;5038096;28;20026;-74
2021/11/18 09:28:11;;;;;;;17.40;11.10;;;8.70;99.90;;;;;;5035892;28;20021;-73
2021/11/18 09:30:50;;;;;;;18.90;11.50;;;8.70;99.90;;;;;;5033053;28;20017;-73
2021/11/18 09:33:15;;;;;;;20.55;11.38;;;8.50;99.90;;;;;;5033670;28;20056;-72
2021/11/18 09:35:45;;;;;;;16.75;11.85;;;8.40;99.90;;;;;;5032342;28;20524;-72
2021/11/18 09:38:11;;;;;;;17.60;11.80;;;8.30;99.90;;;;;;5033161;28;20147;-73
2021/11/18 09:41:07;;;;;;;15.40;10.98;;;8.20;99.90;;;;;;5033565;28;20033;-72
2021/11/18 09:43:47;;;;;;;18.13;11.95;;;8.10;99.90;;;;;;5033048;28;20082;-71
2021/11/18 09:46:50;;;;;;;18.87;11.17;;;8.20;99.90;;;;;;5031602;28;20193;-72
2021/11/18 09:49:38;;;;;;;17.52;12.02;;;8.30;99.90;;;;;;5033039;28;20033;-73
2021/11/18 09:52:04;;;;;;;18.45;12.15;;;8.50;99.90;;;;;;5033367;28;20021;-73
2021/11/18 09:54:54;;;;;;;22.15;12.38;;;8.40;99.90;;;;;;5033578;28;20099;-74
2021/11/18 09:57:30;;;;;;;18.27;11.02;;;8.50;99.90;;;;;;5033028;28;20072;-73
2021/11/18 10:00:07;;;;;;;14.65;11.48;;;8.70;99.90;;;;;;5035018;28;20033;-73
2021/11/18 10:02:54;;;;;;;18.42;11.73;;;8.80;99.90;;;;;;5033738;28;20639;-73
2021/11/18 10:05:40;;;;;;;18.65;12.88;;;8.70;99.90;;;;;;5035287;28;20041;-72
2021/11/18 10:08:18;;;;;;;17.17;11.65;;;8.80;99.90;;;;;;5050223;22;21397;-77
2021/11/18 10:10:58;;;;;;;17.50;11.52;;;8.90;99.90;;;;;;5035646;28;20068;-77
2021/11/18 10:14:05;;;;;;;22.65;14.05;;;9.00;99.90;;;;;;5036605;28;20029;-77
2021/11/18 10:17:06;;;;;;;20.75;12.70;;;9.10;99.90;;;;;;5026600;28;20148;-77
2021/11/18 10:19:36;;;;;;;17.30;12.13;;;9.20;99.90;;;;;;5036872;28;20041;-78
2021/11/18 10:22:02;;;;;;;19.90;12.75;;;9.40;99.90;;;;;;5037305;28;20044;-78
2021/11/18 10:24:33;;;;;;;18.08;11.40;;;9.70;99.90;;;;;;5036603;28;20037;-78
2021/11/18 10:27:09;;;;;;;18.90;12.57;;;10.10;99.90;;;;;;5037495;28;20033;-77
2021/11/18 10:29:52;;;;;;;19.60;12.90;;;10.30;99.90;;;;;;5036948;28;20022;-77
2021/11/18 10:32:18;;;;;;;18.23;11.77;;;10.60;99.90;;;;;;5039125;28;20110;-78
2021/11/18 10:35:00;;;;;;;21.13;12.10;;;10.50;99.90;;;;;;5047219;28;20032;-76
2021/11/18 10:37:32;;;;;;;19.05;12.38;;;10.90;99.90;;;;;;5053656;28;20076;-77
2021/11/18 10:40:08;;;;;;;24.02;11.88;;;11.00;99.90;;;;;;5039692;28;20121;-78
2021/11/18 10:43:02;;;;;;;18.83;11.68;;;10.90;99.90;;;;;;5039933;28;20069;-78
2021/11/18 10:45:28;;;;;;;16.52;11.25;;;10.50;99.90;;;;;;5038446;28;20025;-78
2021/11/18 10:47:59;;;;;;;19.05;11.50;;;10.30;99.90;;;;;;5040557;28;20022;-78
2021/11/18 10:50:28;;;;;;;;;;;10.10;99.90;;;;;;5041576;28;20097;-77
2021/11/18 10:53:20;;;;;;;14.60;11.13;;;9.80;99.90;;;;;;5040056;28;19959;-77
2021/11/18 10:56:11;;;;;;;19.63;12.25;;;9.80;99.90;;;;;;5044417;28;20121;-76
2021/11/18 10:58:46;;;;;;;25.15;14.07;;;9.90;99.90;;;;;;5056794;28;20060;-76
2021/11/18 11:01:35;;;;;;;21.70;12.35;;;9.80;99.90;;;;;;5057857;28;20140;-77
2021/11/18 11:04:07;;;;;;;16.02;11.52;;;10.10;99.90;;;;;;5057555;28;20485;-78
2021/11/18 11:06:53;;;;;;;15.88;10.25;;;10.00;99.90;;;;;;5048163;28;20108;-76
2021/11/18 11:09:30;;;;;;;22.08;11.20;;;10.30;99.90;;;;;;5050303;28;20041;-77
2021/11/18 11:12:11;;;;;;;15.02;11.55;;;10.50;99.90;;;;;;5051201;28;20044;-77
2021/11/18 11:15:09;;;;;;;15.13;11.20;;;10.90;99.90;;;;;;5045522;28;20129;-79
2021/11/18 11:18:12;;;;;;;14.57;11.10;;;11.00;99.90;;;;;;5042132;28;20045;-77
2021/11/18 11:20:48;;;;;;;19.13;10.88;;;11.10;99.90;;;;;;5045063;28;20262;-77
2021/11/18 11:23:34;;;;;;;14.02;10.32;;;11.30;99.90;;;;;;5042396;28;20061;-77
2021/11/18 11:26:26;;;;;;;17.83;10.40;;;11.30;99.90;;;;;;5045048;28;20156;-78
2021/11/18 11:29:02;;;;;;;17.30;10.27;;;11.30;99.90;;;;;;5048393;28;20025;-77
2021/11/18 11:31:48;;;;;;;18.13;11.38;;;11.10;99.90;;;;;;5045313;28;20477;-76
2021/11/18 11:34:48;;;;;;;19.45;10.65;;;11.20;99.90;;;;;;5047038;28;20069;-77
2021/11/18 11:37:46;;;;;;;13.10;10.23;;;11.50;99.90;;;;;;5046418;28;20021;-77
2021/11/18 11:40:30;;;;;;;11.48;9.65;;;11.20;99.90;;;;;;5047772;28;20025;-77
2021/11/18 11:43:28;;;;;;;14.85;11.30;;;11.40;99.90;;;;;;5044740;28;20029;-76
2021/11/18 11:46:05;;;;;;;12.52;9.55;;;11.10;99.90;;;;;;5043185;28;20030;-77
2021/11/18 11:48:39;;;;;;;13.13;9.25;;;10.90;99.90;;;;;;5043983;28;20027;-77
2021/11/18 11:51:43;;;;;;;17.45;9.73;;;10.60;99.90;;;;;;5045049;28;20079;-76
2021/11/18 11:54:29;;;;;;;10.60;9.10;;;11.00;99.90;;;;;;5045441;28;20025;-76
2021/11/18 11:57:02;;;;;;;15.20;9.27;;;11.00;99.90;;;;;;5050511;28;20030;-78
2021/11/18 11:59:40;;;;;;;14.60;9.82;;;11.10;99.90;;;;;;5053222;28;20086;-77
2021/11/18 12:02:24;;;;;;;18.42;9.57;;;11.10;99.90;;;;;;5054430;28;20029;-77
2021/11/18 12:05:02;;;;;;;14.82;10.30;;;10.90;99.90;;;;;;5055773;28;20029;-78
2021/11/18 12:07:53;;;;;;;19.00;12.48;;;10.90;99.90;;;;;;5052393;28;20036;-77
2021/11/18 12:10:34;;;;;;;14.55;11.35;;;10.90;99.90;;;;;;5051540;28;20112;-78
2021/11/18 12:13:28;;;;;;;17.75;12.32;;;10.80;99.90;;;;;;5050082;28;20030;-77
2021/11/18 12:16:05;;;;;;;19.90;12.82;;;10.50;99.90;;;;;;5052508;28;20022;-76
2021/11/18 12:18:42;;;;;;;19.15;12.45;;;10.30;99.90;;;;;;5049123;28;20028;-77
2021/11/18 12:21:08;;;;;;;20.25;13.68;;;10.20;99.90;;;;;;5049044;28;20026;-78
2021/11/18 12:23:56;;;;;;;24.33;13.25;;;10.20;99.90;;;;;;5048962;28;20026;-75
2021/11/18 12:26:22;;;;;;;18.67;11.88;;;10.40;99.90;;;;;;5033224;28;20033;-77
2021/11/18 12:29:17;;;;;;;15.77;12.00;;;10.60;99.90;;;;;;5052640;28;20112;-77
2021/11/18 12:32:11;;;;;;;26.83;11.85;;;10.40;99.90;;;;;;5050586;28;20040;-78
2021/11/18 12:34:55;;;;;;;14.77;10.45;;;10.40;99.90;;;;;;5051009;28;20029;-77
2021/11/18 12:37:26;;;;;;;18.60;11.43;;;10.40;99.90;;;;;;5053097;28;20064;-78
2021/11/18 12:40:34;;;;;;;15.38;10.98;;;10.40;99.90;;;;;;5051122;28;20041;-77
2021/11/18 12:43:45;;;;;;;16.58;11.43;;;10.50;99.90;;;;;;5052998;28;20041;-77
2021/11/18 12:46:20;;;;;;;13.68;9.85;;;10.30;99.90;;;;;;5042194;28;20033;-77
2021/11/18 12:48:52;;;;;;;14.10;10.48;;;10.50;99.90;;;;;;5047787;28;20424;-78
2021/11/18 12:51:44;;;;;;;14.63;10.88;;;10.70;99.90;;;;;;5047717;28;20031;-79
2021/11/18 12:54:09;;;;;;;18.23;9.95;;;10.80;99.90;;;;;;5047169;28;20025;-77
2021/11/18 12:56:59;;;;;;;16.80;11.07;;;10.60;99.90;;;;;;5046872;28;20033;-79
2021/11/18 12:59:36;;;;;;;19.52;10.60;;;10.30;99.90;;;;;;5046190;28;20017;-78
2021/11/18 13:02:06;;;;;;;13.88;9.35;;;10.20;99.90;;;;;;5047161;28;20026;-76
2021/11/18 13:04:48;;;;;;;17.33;10.55;;;10.40;99.90;;;;;;5046941;28;20026;-76